Lorraine L — WDB8580 — position and weather

sailwx.info

Track history (hours):
 
Tides and Currents Weather Stations Pressure Air Temp Water Temp Dewpoint Dewpoint Depression Visibility Wind Speed Wind Dir Waves Ship Positions

Lorraine L

Owner: Highland Towing LLC, Metairie, LA. More information available from US FCC via Universal Licensing System and Coast Guard Vessel Documentation Center.

Last reported at 2016-Jul-27 22:31 UTC. Time now 2016-Jul-27 23:00 UTC.
Position N 30°06' W 093°18'.

Length 19 m; draft 2.4 m.

Type: Towing. MMSI: 366961130.

Date/timePositionNaut miles runAvg speedWind from/ knotsBaromVisibWave heightAir tempDewpointWater temp
2016-Jul-27 22:31N 30°06' W 093°18'0 0.0
2016-Jul-27 21:31N 30°06' W 093°18'0 0.0
2016-Jul-27 20:31N 30°06' W 093°18'0 0.0
2016-Jul-27 19:31N 30°06' W 093°18'0 0.0
2016-Jul-27 18:31N 30°06' W 093°18'0 0.2
2016-Jul-27 17:33N 30°06' W 093°18'0 0.2
2016-Jul-27 16:31N 30°06' W 093°18'0 0.0
2016-Jul-27 15:31N 30°06' W 093°18'0 0.0
2016-Jul-27 14:31N 30°06' W 093°18'0 0.0
2016-Jul-27 13:31N 30°06' W 093°18'0 0.0
2016-Jul-27 12:31N 30°06' W 093°18'0 0.0
2016-Jul-27 11:31N 30°06' W 093°18'0 0.0
2016-Jul-27 10:31N 30°06' W 093°18'0 0.0
2016-Jul-27 09:34N 30°06' W 093°18'0 0.0
2016-Jul-27 08:30N 30°06' W 093°18'0 0.0
2016-Jul-27 07:31N 30°06' W 093°18'0 0.0
2016-Jul-27 06:33N 30°06' W 093°18'3 2.6
2016-Jul-27 05:34N 30°05' W 093°20'5 5.3
2016-Jul-27 04:34N 30°04' W 093°26'6 5.8
2016-Jul-27 03:34N 30°04' W 093°33'5 5.4
2016-Jul-27 02:34N 30°04' W 093°39'5 4.7
2016-Jul-27 01:33N 30°02' W 093°44'16 1.2
2016-Jul-26 12:13N 30°02' W 094°03'0 0.0
2016-Jul-26 11:28N 30°02' W 094°03'0 0.0
2016-Jul-26 10:22N 30°02' W 094°03'0 0.0
2016-Jul-26 02:22N 30°02' W 094°03'0 0.0
2016-Jul-26 01:25N 30°02' W 094°03'0 0.0
2016-Jul-26 00:31N 30°02' W 094°03'0 0.0
2016-Jul-25 23:31N 30°02' W 094°03'10 0.2
2016-Jul-24 02:22N 29°59' W 093°52'36 2.0
2016-Jul-23 08:26N 29°36' W 094°24'  
2016-Jul-20 22:04N 30°02' W 093°44'3 4.6
2016-Jul-20 21:31N 30°03' W 093°42'4 4.5
2016-Jul-20 20:34N 30°04' W 093°37'4 4.4
2016-Jul-20 19:34N 30°04' W 093°32'4 4.5
2016-Jul-20 18:34N 30°04' W 093°27'5 4.5
2016-Jul-20 17:34N 30°04' W 093°21'4 3.8
2016-Jul-20 16:34N 30°06' W 093°18'0 0.0
2016-Jul-20 15:33N 30°06' W 093°18'0 0.0
2016-Jul-20 14:33N 30°06' W 093°18'0 0.0
2016-Jul-20 13:33N 30°06' W 093°18'0 0.0
2016-Jul-20 12:33N 30°06' W 093°18'0 0.0
2016-Jul-20 11:31N 30°06' W 093°18'0 0.0
2016-Jul-20 10:31N 30°06' W 093°18'0 0.0
2016-Jul-20 09:31N 30°06' W 093°18'0 0.0
2016-Jul-20 08:28N 30°06' W 093°18'0 0.0
2016-Jul-20 07:31N 30°06' W 093°18'0 0.0
2016-Jul-20 06:34N 30°06' W 093°18'0 0.0
2016-Jul-20 05:31N 30°06' W 093°18'0 0.0
2016-Jul-20 04:33N 30°06' W 093°18'2 1.7
2016-Jul-20 03:33N 30°07' W 093°20'4 3.8
2016-Jul-20 02:33N 30°11' W 093°19'0 0.2
2016-Jul-20 01:33N 30°11' W 093°19'0 0.0
2016-Jul-20 00:33N 30°11' W 093°19'0 0.0
2016-Jul-19 23:33N 30°11' W 093°19'0 0.0
2016-Jul-19 22:33N 30°11' W 093°19'0 0.0
2016-Jul-19 21:33N 30°11' W 093°19'0 0.0
2016-Jul-19 20:30N 30°11' W 093°19'0 0.0
2016-Jul-19 19:33N 30°11' W 093°19'0 0.0
2016-Jul-19 18:33N 30°11' W 093°19'0 0.0
2016-Jul-19 17:33N 30°11' W 093°19'1 1.4
2016-Jul-19 16:33N 30°10' W 093°19'4 3.6
2016-Jul-19 15:33N 30°06' W 093°19'1 0.7
2016-Jul-19 14:31N 30°06' W 093°18'0 0.0
2016-Jul-19 10:33N 30°06' W 093°18'0 0.0
2016-Jul-19 09:33N 30°06' W 093°18'0 0.0
2016-Jul-19 08:33N 30°06' W 093°18'0 0.0
2016-Jul-19 07:33N 30°06' W 093°18'0 0.0
2016-Jul-19 04:33N 30°06' W 093°18'0 0.0
2016-Jul-19 03:33N 30°06' W 093°18'0 0.0
2016-Jul-19 02:33N 30°06' W 093°18'0 0.0
2016-Jul-19 01:33N 30°06' W 093°18'0 0.0
2016-Jul-19 00:33N 30°06' W 093°18'0 0.0
2016-Jul-18 23:33N 30°06' W 093°18'0 0.0
2016-Jul-18 22:33N 30°06' W 093°18'0 0.0
2016-Jul-18 21:33N 30°06' W 093°18'0 0.0
2016-Jul-18 20:33N 30°06' W 093°18'0 0.0
2016-Jul-18 19:33N 30°06' W 093°18'0 0.0
2016-Jul-18 18:33N 30°06' W 093°18'0 0.0
2016-Jul-18 17:33N 30°06' W 093°18'0 0.0
2016-Jul-18 16:33N 30°06' W 093°18'0 0.0
2016-Jul-18 15:33N 30°06' W 093°18'0 0.0
2016-Jul-18 14:33N 30°06' W 093°18'0 0.0
2016-Jul-18 13:33N 30°06' W 093°18'0 0.0
2016-Jul-18 12:33N 30°06' W 093°18'0 0.0
2016-Jul-18 11:33N 30°06' W 093°18'0 0.0
2016-Jul-18 10:33N 30°06' W 093°18'0 0.0
2016-Jul-18 09:33N 30°06' W 093°18'0 0.0
2016-Jul-18 08:33N 30°06' W 093°18'0 0.0
2016-Jul-18 07:33N 30°06' W 093°18'0 0.0
2016-Jul-18 06:33N 30°06' W 093°18'0 0.0
2016-Jul-18 05:33N 30°06' W 093°18'0 0.0
2016-Jul-18 04:33N 30°06' W 093°18'0 0.0
2016-Jul-18 03:33N 30°06' W 093°18'0 0.0
2016-Jul-18 02:33N 30°06' W 093°18'0 0.0
2016-Jul-18 01:33N 30°06' W 093°18'0 0.0
2016-Jul-18 00:33N 30°06' W 093°18'0 0.0
2016-Jul-17 23:33N 30°06' W 093°18'0 0.0
2016-Jul-17 22:33N 30°06' W 093°18'  
Track history (hours):
 
Tides and Currents Weather Stations Pressure Air Temp Water Temp Dewpoint Dewpoint Depression Visibility Wind Speed Wind Dir Waves Ship Positions

Lorraine L

Owner: Highland Towing LLC, Metairie, LA. More information available from US FCC via Universal Licensing System and Coast Guard Vessel Documentation Center.

Last reported at 2016-Jul-27 22:31 UTC. Time now 2016-Jul-27 23:00 UTC.
Position N 30°06' W 093°18'.

Length 19 m; draft 2.4 m.

Type: Towing. MMSI: 366961130.

Date/timePositionNaut miles runAvg speedWind from/ knotsBaromVisibWave heightAir tempDewpointWater temp
2016-Jul-27 22:31N 30°06' W 093°18'0 0.0
2016-Jul-27 21:31N 30°06' W 093°18'0 0.0
2016-Jul-27 20:31N 30°06' W 093°18'0 0.0
2016-Jul-27 19:31N 30°06' W 093°18'0 0.0
2016-Jul-27 18:31N 30°06' W 093°18'0 0.2
2016-Jul-27 17:33N 30°06' W 093°18'0 0.2
2016-Jul-27 16:31N 30°06' W 093°18'0 0.0
2016-Jul-27 15:31N 30°06' W 093°18'0 0.0
2016-Jul-27 14:31N 30°06' W 093°18'0 0.0
2016-Jul-27 13:31N 30°06' W 093°18'0 0.0
2016-Jul-27 12:31N 30°06' W 093°18'0 0.0
2016-Jul-27 11:31N 30°06' W 093°18'0 0.0
2016-Jul-27 10:31N 30°06' W 093°18'0 0.0
2016-Jul-27 09:34N 30°06' W 093°18'0 0.0
2016-Jul-27 08:30N 30°06' W 093°18'0 0.0
2016-Jul-27 07:31N 30°06' W 093°18'0 0.0
2016-Jul-27 06:33N 30°06' W 093°18'3 2.6
2016-Jul-27 05:34N 30°05' W 093°20'5 5.3
2016-Jul-27 04:34N 30°04' W 093°26'6 5.8
2016-Jul-27 03:34N 30°04' W 093°33'5 5.4
2016-Jul-27 02:34N 30°04' W 093°39'5 4.7
2016-Jul-27 01:33N 30°02' W 093°44'16 1.2
2016-Jul-26 12:13N 30°02' W 094°03'0 0.0
2016-Jul-26 11:28N 30°02' W 094°03'0 0.0
2016-Jul-26 10:22N 30°02' W 094°03'0 0.0
2016-Jul-26 02:22N 30°02' W 094°03'0 0.0
2016-Jul-26 01:25N 30°02' W 094°03'0 0.0
2016-Jul-26 00:31N 30°02' W 094°03'0 0.0
2016-Jul-25 23:31N 30°02' W 094°03'10 0.2
2016-Jul-24 02:22N 29°59' W 093°52'36 2.0
2016-Jul-23 08:26N 29°36' W 094°24'  
2016-Jul-20 22:04N 30°02' W 093°44'3 4.6
2016-Jul-20 21:31N 30°03' W 093°42'4 4.5
2016-Jul-20 20:34N 30°04' W 093°37'4 4.4
2016-Jul-20 19:34N 30°04' W 093°32'4 4.5
2016-Jul-20 18:34N 30°04' W 093°27'5 4.5
2016-Jul-20 17:34N 30°04' W 093°21'4 3.8
2016-Jul-20 16:34N 30°06' W 093°18'0 0.0
2016-Jul-20 15:33N 30°06' W 093°18'0 0.0
2016-Jul-20 14:33N 30°06' W 093°18'0 0.0
2016-Jul-20 13:33N 30°06' W 093°18'0 0.0
2016-Jul-20 12:33N 30°06' W 093°18'0 0.0
2016-Jul-20 11:31N 30°06' W 093°18'0 0.0
2016-Jul-20 10:31N 30°06' W 093°18'0 0.0
2016-Jul-20 09:31N 30°06' W 093°18'0 0.0
2016-Jul-20 08:28N 30°06' W 093°18'0 0.0
2016-Jul-20 07:31N 30°06' W 093°18'0 0.0
2016-Jul-20 06:34N 30°06' W 093°18'0 0.0
2016-Jul-20 05:31N 30°06' W 093°18'0 0.0
2016-Jul-20 04:33N 30°06' W 093°18'2 1.7
2016-Jul-20 03:33N 30°07' W 093°20'4 3.8
2016-Jul-20 02:33N 30°11' W 093°19'0 0.2
2016-Jul-20 01:33N 30°11' W 093°19'0 0.0
2016-Jul-20 00:33N 30°11' W 093°19'0 0.0
2016-Jul-19 23:33N 30°11' W 093°19'0 0.0
2016-Jul-19 22:33N 30°11' W 093°19'0 0.0
2016-Jul-19 21:33N 30°11' W 093°19'0 0.0
2016-Jul-19 20:30N 30°11' W 093°19'0 0.0
2016-Jul-19 19:33N 30°11' W 093°19'0 0.0
2016-Jul-19 18:33N 30°11' W 093°19'0 0.0
2016-Jul-19 17:33N 30°11' W 093°19'1 1.4
2016-Jul-19 16:33N 30°10' W 093°19'4 3.6
2016-Jul-19 15:33N 30°06' W 093°19'1 0.7
2016-Jul-19 14:31N 30°06' W 093°18'0 0.0
2016-Jul-19 10:33N 30°06' W 093°18'0 0.0
2016-Jul-19 09:33N 30°06' W 093°18'0 0.0
2016-Jul-19 08:33N 30°06' W 093°18'0 0.0
2016-Jul-19 07:33N 30°06' W 093°18'0 0.0
2016-Jul-19 04:33N 30°06' W 093°18'0 0.0
2016-Jul-19 03:33N 30°06' W 093°18'0 0.0
2016-Jul-19 02:33N 30°06' W 093°18'0 0.0
2016-Jul-19 01:33N 30°06' W 093°18'0 0.0
2016-Jul-19 00:33N 30°06' W 093°18'0 0.0
2016-Jul-18 23:33N 30°06' W 093°18'0 0.0
2016-Jul-18 22:33N 30°06' W 093°18'0 0.0
2016-Jul-18 21:33N 30°06' W 093°18'0 0.0
2016-Jul-18 20:33N 30°06' W 093°18'0 0.0
2016-Jul-18 19:33N 30°06' W 093°18'0 0.0
2016-Jul-18 18:33N 30°06' W 093°18'0 0.0
2016-Jul-18 17:33N 30°06' W 093°18'0 0.0
2016-Jul-18 16:33N 30°06' W 093°18'0 0.0
2016-Jul-18 15:33N 30°06' W 093°18'0 0.0
2016-Jul-18 14:33N 30°06' W 093°18'0 0.0
2016-Jul-18 13:33N 30°06' W 093°18'0 0.0
2016-Jul-18 12:33N 30°06' W 093°18'0 0.0
2016-Jul-18 11:33N 30°06' W 093°18'0 0.0
2016-Jul-18 10:33N 30°06' W 093°18'0 0.0
2016-Jul-18 09:33N 30°06' W 093°18'0 0.0
2016-Jul-18 08:33N 30°06' W 093°18'0 0.0
2016-Jul-18 07:33N 30°06' W 093°18'0 0.0
2016-Jul-18 06:33N 30°06' W 093°18'0 0.0
2016-Jul-18 05:33N 30°06' W 093°18'0 0.0
2016-Jul-18 04:33N 30°06' W 093°18'0 0.0
2016-Jul-18 03:33N 30°06' W 093°18'0 0.0
2016-Jul-18 02:33N 30°06' W 093°18'0 0.0
2016-Jul-18 01:33N 30°06' W 093°18'0 0.0
2016-Jul-18 00:33N 30°06' W 093°18'0 0.0
2016-Jul-17 23:33N 30°06' W 093°18'0 0.0
2016-Jul-17 22:33N 30°06' W 093°18'  

Dump ship's entire track history